sensor_id;sensor_type;location;lat;lon;timestamp;pressure;altitude;pressure_sealevel;temperature;humidity
77877;BME280;67251;50.844;7.978;2023-03-22T00:00:25;98467.97;;;3.17;96.78
77877;BME280;67251;50.844;7.978;2023-03-22T00:02:55;98469.13;;;3.06;96.79
77877;BME280;67251;50.844;7.978;2023-03-22T00:05:21;98469.09;;;2.98;96.76
77877;BME280;67251;50.844;7.978;2023-03-22T00:07:46;98463.66;;;3.00;96.70
77877;BME280;67251;50.844;7.978;2023-03-22T00:10:18;98467.63;;;3.04;96.73
77877;BME280;67251;50.844;7.978;2023-03-22T00:12:44;98463.66;;;3.08;97.09
77877;BME280;67251;50.844;7.978;2023-03-22T00:15:09;98461.19;;;3.06;96.80
77877;BME280;67251;50.844;7.978;2023-03-22T00:17:35;98459.19;;;3.00;96.82
77877;BME280;67251;50.844;7.978;2023-03-22T00:20:02;98454.56;;;3.02;96.78
77877;BME280;67251;50.844;7.978;2023-03-22T00:22:30;98456.88;;;3.05;96.92
77877;BME280;67251;50.844;7.978;2023-03-22T00:24:56;98446.66;;;3.11;96.97
77877;BME280;67251;50.844;7.978;2023-03-22T00:27:21;98441.50;;;3.01;97.19
77877;BME280;67251;50.844;7.978;2023-03-22T00:29:46;98446.94;;;2.91;96.79
77877;BME280;67251;50.844;7.978;2023-03-22T00:32:12;98446.28;;;2.89;97.04
77877;BME280;67251;50.844;7.978;2023-03-22T00:34:37;98444.16;;;2.93;97.28
77877;BME280;67251;50.844;7.978;2023-03-22T00:37:02;98441.03;;;2.97;97.15
77877;BME280;67251;50.844;7.978;2023-03-22T00:39:28;98437.53;;;2.89;96.97
77877;BME280;67251;50.844;7.978;2023-03-22T00:41:54;98438.50;;;2.79;97.08
77877;BME280;67251;50.844;7.978;2023-03-22T00:44:19;98435.88;;;2.79;97.09
77877;BME280;67251;50.844;7.978;2023-03-22T00:46:44;98438.69;;;2.86;97.09
77877;BME280;67251;50.844;7.978;2023-03-22T00:49:10;98430.44;;;2.89;97.26
77877;BME280;67251;50.844;7.978;2023-03-22T00:51:36;98432.56;;;2.86;97.11
77877;BME280;67251;50.844;7.978;2023-03-22T00:54:01;98431.75;;;2.85;97.20
77877;BME280;67251;50.844;7.978;2023-03-22T00:56:27;98427.47;;;2.92;97.37
77877;BME280;67251;50.844;7.978;2023-03-22T00:58:53;98428.44;;;2.91;97.28
77877;BME280;67251;50.844;7.978;2023-03-22T01:01:19;98422.19;;;2.92;97.21
77877;BME280;67251;50.844;7.978;2023-03-22T01:03:44;98423.50;;;2.88;97.35
77877;BME280;67251;50.844;7.978;2023-03-22T01:06:14;98433.53;;;2.76;97.33
77877;BME280;67251;50.844;7.978;2023-03-22T01:08:39;98431.06;;;2.75;97.12
77877;BME280;67251;50.844;7.978;2023-03-22T01:11:05;98424.78;;;2.76;97.18
77877;BME280;67251;50.844;7.978;2023-03-22T01:13:31;98432.41;;;2.79;97.19
77877;BME280;67251;50.844;7.978;2023-03-22T01:15:57;98432.91;;;2.83;97.42
77877;BME280;67251;50.844;7.978;2023-03-22T01:18:22;98425.81;;;2.83;97.38
77877;BME280;67251;50.844;7.978;2023-03-22T01:20:47;98420.19;;;2.86;97.57
77877;BME280;67251;50.844;7.978;2023-03-22T01:23:13;98421.50;;;2.90;97.40
77877;BME280;67251;50.844;7.978;2023-03-22T01:25:38;98412.25;;;2.86;97.57
77877;BME280;67251;50.844;7.978;2023-03-22T01:28:04;98411.25;;;2.79;97.25
77877;BME280;67251;50.844;7.978;2023-03-22T01:30:31;98404.97;;;2.72;97.29
77877;BME280;67251;50.844;7.978;2023-03-22T01:32:56;98401.00;;;2.68;97.46
77877;BME280;67251;50.844;7.978;2023-03-22T01:35:22;98392.06;;;2.61;97.41
77877;BME280;67251;50.844;7.978;2023-03-22T01:37:47;98396.84;;;2.57;97.28
77877;BME280;67251;50.844;7.978;2023-03-22T01:40:13;98388.91;;;2.57;97.34
77877;BME280;67251;50.844;7.978;2023-03-22T01:42:39;98374.25;;;2.54;97.60
77877;BME280;67251;50.844;7.978;2023-03-22T01:47:56;98380.50;;;2.45;97.44
77877;BME280;67251;50.844;7.978;2023-03-22T01:56:16;98370.06;;;2.36;97.54
77877;BME280;67251;50.844;7.978;2023-03-22T01:58:43;98363.09;;;2.26;97.65
77877;BME280;67251;50.844;7.978;2023-03-22T02:01:10;98369.38;;;2.34;97.60
77877;BME280;67251;50.844;7.978;2023-03-22T02:06:27;98358.78;;;2.25;97.75
77877;BME280;67251;50.844;7.978;2023-03-22T02:08:54;98364.25;;;2.24;97.85
77877;BME280;67251;50.844;7.978;2023-03-22T02:11:28;98365.50;;;2.12;97.59
77877;BME280;67251;50.844;7.978;2023-03-22T02:14:28;98356.28;;;2.08;97.54
77877;BME280;67251;50.844;7.978;2023-03-22T02:17:34;98356.53;;;1.96;97.53
77877;BME280;67251;50.844;7.978;2023-03-22T02:23:01;98365.44;;;1.95;97.63
77877;BME280;67251;50.844;7.978;2023-03-22T02:25:51;98359.03;;;1.98;97.55
77877;BME280;67251;50.844;7.978;2023-03-22T02:34:17;98361.81;;;1.96;97.77
77877;BME280;67251;50.844;7.978;2023-03-22T02:39:47;98354.94;;;1.69;97.64
77877;BME280;67251;50.844;7.978;2023-03-22T02:42:24;98350.44;;;1.62;97.73
77877;BME280;67251;50.844;7.978;2023-03-22T02:52:55;98339.84;;;1.79;97.75
77877;BME280;67251;50.844;7.978;2023-03-22T02:58:01;98335.03;;;1.75;97.85
77877;BME280;67251;50.844;7.978;2023-03-22T03:00:29;98328.78;;;1.76;97.63
77877;BME280;67251;50.844;7.978;2023-03-22T03:03:00;98327.47;;;1.88;97.55
77877;BME280;67251;50.844;7.978;2023-03-22T03:05:38;98321.81;;;2.09;97.74
77877;BME280;67251;50.844;7.978;2023-03-22T03:08:04;98328.25;;;2.15;98.07
77877;BME280;67251;50.844;7.978;2023-03-22T03:10:32;98329.59;;;2.19;97.86
77877;BME280;67251;50.844;7.978;2023-03-22T03:12:58;98316.56;;;2.17;98.26
77877;BME280;67251;50.844;7.978;2023-03-22T03:15:25;98315.09;;;2.23;98.09
77877;BME280;67251;50.844;7.978;2023-03-22T03:18:07;98306.84;;;2.26;98.15
77877;BME280;67251;50.844;7.978;2023-03-22T03:20:51;98315.72;;;2.17;98.33
77877;BME280;67251;50.844;7.978;2023-03-22T03:23:32;98312.38;;;2.07;98.02
77877;BME280;67251;50.844;7.978;2023-03-22T03:28:55;98308.06;;;1.97;98.00
77877;BME280;67251;50.844;7.978;2023-03-22T03:31:49;98304.16;;;2.10;98.26
77877;BME280;67251;50.844;7.978;2023-03-22T03:34:33;98307.44;;;2.12;98.19
77877;BME280;67251;50.844;7.978;2023-03-22T03:37:04;98297.03;;;1.94;98.14
77877;BME280;67251;50.844;7.978;2023-03-22T03:39:36;98310.84;;;1.88;98.19
77877;BME280;67251;50.844;7.978;2023-03-22T03:42:03;98298.28;;;1.82;98.13
77877;BME280;67251;50.844;7.978;2023-03-22T03:44:31;98294.25;;;2.03;98.27
77877;BME280;67251;50.844;7.978;2023-03-22T03:47:01;98302.47;;;2.00;98.12
77877;BME280;67251;50.844;7.978;2023-03-22T03:49:27;98307.97;;;2.15;98.37
77877;BME280;67251;50.844;7.978;2023-03-22T03:51:54;98299.06;;;2.24;98.14
77877;BME280;67251;50.844;7.978;2023-03-22T03:54:20;98295.78;;;2.30;98.25
77877;BME280;67251;50.844;7.978;2023-03-22T03:56:46;98295.66;;;2.48;98.59
77877;BME280;67251;50.844;7.978;2023-03-22T03:59:14;98295.69;;;2.65;98.64
77877;BME280;67251;50.844;7.978;2023-03-22T04:01:41;98275.69;;;2.95;98.68
77877;BME280;67251;50.844;7.978;2023-03-22T04:04:14;98283.56;;;3.36;98.77
77877;BME280;67251;50.844;7.978;2023-03-22T04:06:39;98281.53;;;3.46;98.86
77877;BME280;67251;50.844;7.978;2023-03-22T04:09:05;98277.56;;;3.50;98.92
77877;BME280;67251;50.844;7.978;2023-03-22T04:11:31;98275.22;;;3.55;99.03
77877;BME280;67251;50.844;7.978;2023-03-22T04:13:56;98278.69;;;3.64;99.17
77877;BME280;67251;50.844;7.978;2023-03-22T04:16:21;98279.63;;;3.71;99.08
77877;BME280;67251;50.844;7.978;2023-03-22T04:18:49;98280.44;;;3.71;99.02
77877;BME280;67251;50.844;7.978;2023-03-22T04:21:14;98280.63;;;3.70;99.07
77877;BME280;67251;50.844;7.978;2023-03-22T04:23:40;98278.78;;;3.78;98.98
77877;BME280;67251;50.844;7.978;2023-03-22T04:26:06;98282.44;;;3.69;99.07
77877;BME280;67251;50.844;7.978;2023-03-22T04:28:31;98287.81;;;3.53;98.64
77877;BME280;67251;50.844;7.978;2023-03-22T04:30:57;98287.44;;;3.56;99.14
77877;BME280;67251;50.844;7.978;2023-03-22T04:33:23;98284.25;;;3.77;99.12
77877;BME280;67251;50.844;7.978;2023-03-22T04:35:48;98288.44;;;4.02;99.11
77877;BME280;67251;50.844;7.978;2023-03-22T04:38:14;98288.69;;;4.16;99.12
77877;BME280;67251;50.844;7.978;2023-03-22T04:40:40;98286.53;;;4.19;99.37
77877;BME280;67251;50.844;7.978;2023-03-22T04:43:10;98290.91;;;4.35;99.33
77877;BME280;67251;50.844;7.978;2023-03-22T04:45:36;98290.19;;;4.41;99.37
77877;BME280;67251;50.844;7.978;2023-03-22T04:48:01;98291.19;;;4.40;99.32
77877;BME280;67251;50.844;7.978;2023-03-22T04:50:26;98283.44;;;4.39;99.22
77877;BME280;67251;50.844;7.978;2023-03-22T04:52:53;98291.59;;;4.29;99.43
77877;BME280;67251;50.844;7.978;2023-03-22T04:55:18;98286.47;;;4.27;99.42
77877;BME280;67251;50.844;7.978;2023-03-22T04:57:43;98286.13;;;4.30;99.34
77877;BME280;67251;50.844;7.978;2023-03-22T05:00:10;98284.53;;;4.21;99.39
77877;BME280;67251;50.844;7.978;2023-03-22T05:02:35;98283.91;;;4.11;99.23
77877;BME280;67251;50.844;7.978;2023-03-22T05:05:05;98292.78;;;3.95;99.39
77877;BME280;67251;50.844;7.978;2023-03-22T05:07:31;98287.34;;;3.89;99.31
77877;BME280;67251;50.844;7.978;2023-03-22T05:09:56;98279.88;;;3.92;99.46
77877;BME280;67251;50.844;7.978;2023-03-22T05:12:22;98274.94;;;3.81;99.47
77877;BME280;67251;50.844;7.978;2023-03-22T05:14:47;98282.63;;;3.68;99.29
77877;BME280;67251;50.844;7.978;2023-03-22T05:17:13;98283.41;;;3.76;99.38
77877;BME280;67251;50.844;7.978;2023-03-22T05:19:38;98280.25;;;3.81;99.48
77877;BME280;67251;50.844;7.978;2023-03-22T05:22:03;98279.94;;;3.76;99.38
77877;BME280;67251;50.844;7.978;2023-03-22T05:24:29;98280.59;;;3.78;99.49
77877;BME280;67251;50.844;7.978;2023-03-22T05:26:55;98270.03;;;3.78;99.26
77877;BME280;67251;50.844;7.978;2023-03-22T05:29:26;98276.84;;;3.72;99.33
77877;BME280;67251;50.844;7.978;2023-03-22T05:31:51;98280.09;;;3.82;99.29
77877;BME280;67251;50.844;7.978;2023-03-22T05:34:17;98281.09;;;3.81;99.45
77877;BME280;67251;50.844;7.978;2023-03-22T05:36:44;98274.94;;;3.81;99.47
77877;BME280;67251;50.844;7.978;2023-03-22T05:39:10;98281.09;;;3.81;99.26
77877;BME280;67251;50.844;7.978;2023-03-22T05:41:36;98293.09;;;4.00;99.36
77877;BME280;67251;50.844;7.978;2023-03-22T05:44:01;98291.13;;;4.25;99.27
77877;BME280;67251;50.844;7.978;2023-03-22T05:46:26;98294.72;;;4.55;99.26
77877;BME280;67251;50.844;7.978;2023-03-22T05:48:52;98293.72;;;4.79;99.57
77877;BME280;67251;50.844;7.978;2023-03-22T05:51:18;98291.13;;;4.94;99.47
77877;BME280;67251;50.844;7.978;2023-03-22T05:53:45;98291.88;;;5.03;99.56
77877;BME280;67251;50.844;7.978;2023-03-22T05:56:12;98288.31;;;5.10;99.62
77877;BME280;67251;50.844;7.978;2023-03-22T05:58:37;98274.53;;;5.15;99.44
77877;BME280;67251;50.844;7.978;2023-03-22T06:01:05;98286.25;;;5.35;99.46
77877;BME280;67251;50.844;7.978;2023-03-22T06:03:31;98290.13;;;5.48;99.64
77877;BME280;67251;50.844;7.978;2023-03-22T06:05:56;98285.00;;;5.61;99.50
77877;BME280;67251;50.844;7.978;2023-03-22T06:08:22;98290.38;;;5.68;99.39
77877;BME280;67251;50.844;7.978;2023-03-22T06:10:51;98286.38;;;5.72;98.99
77877;BME280;67251;50.844;7.978;2023-03-22T06:13:17;98281.59;;;5.82;97.91
77877;BME280;67251;50.844;7.978;2023-03-22T06:15:43;98283.44;;;5.96;95.41
77877;BME280;67251;50.844;7.978;2023-03-22T06:18:09;98277.00;;;6.05;95.04
77877;BME280;67251;50.844;7.978;2023-03-22T06:20:35;98271.84;;;6.19;96.00
77877;BME280;67251;50.844;7.978;2023-03-22T06:23:01;98275.03;;;6.29;91.58
77877;BME280;67251;50.844;7.978;2023-03-22T06:25:26;98281.69;;;6.39;92.32
77877;BME280;67251;50.844;7.978;2023-03-22T06:27:52;98279.16;;;6.53;90.34
77877;BME280;67251;50.844;7.978;2023-03-22T06:30:17;98279.88;;;6.61;90.31
77877;BME280;67251;50.844;7.978;2023-03-22T06:32:43;98281.34;;;6.64;90.17
77877;BME280;67251;50.844;7.978;2023-03-22T06:35:09;98275.69;;;6.74;89.06
77877;BME280;67251;50.844;7.978;2023-03-22T06:37:34;98263.34;;;6.87;87.77
77877;BME280;67251;50.844;7.978;2023-03-22T06:39:59;98268.59;;;7.02;87.15
77877;BME280;67251;50.844;7.978;2023-03-22T06:42:25;98256.38;;;7.14;86.49
77877;BME280;67251;50.844;7.978;2023-03-22T06:44:50;98273.47;;;7.27;85.91
77877;BME280;67251;50.844;7.978;2023-03-22T06:47:16;98275.00;;;7.42;85.55
77877;BME280;67251;50.844;7.978;2023-03-22T06:49:41;98267.69;;;7.51;85.41
77877;BME280;67251;50.844;7.978;2023-03-22T06:52:07;98268.56;;;7.58;85.57
77877;BME280;67251;50.844;7.978;2023-03-22T06:54:32;98277.97;;;7.61;85.42
77877;BME280;67251;50.844;7.978;2023-03-22T06:56:58;98283.75;;;7.64;85.13
77877;BME280;67251;50.844;7.978;2023-03-22T06:59:24;98276.00;;;7.76;84.25
77877;BME280;67251;50.844;7.978;2023-03-22T07:01:49;98280.19;;;7.92;83.56
77877;BME280;67251;50.844;7.978;2023-03-22T07:04:15;98283.16;;;8.10;83.11
77877;BME280;67251;50.844;7.978;2023-03-22T07:06:40;98285.88;;;8.24;82.33
77877;BME280;67251;50.844;7.978;2023-03-22T07:09:05;98269.09;;;8.36;81.48
77877;BME280;67251;50.844;7.978;2023-03-22T07:11:31;98283.81;;;8.32;81.21
77877;BME280;67251;50.844;7.978;2023-03-22T07:13:56;98271.94;;;8.28;80.56
77877;BME280;67251;50.844;7.978;2023-03-22T07:16:22;98278.31;;;8.34;80.55
77877;BME280;67251;50.844;7.978;2023-03-22T07:18:49;98278.56;;;8.39;80.57
77877;BME280;67251;50.844;7.978;2023-03-22T07:21:15;98278.78;;;8.44;80.62
77877;BME280;67251;50.844;7.978;2023-03-22T07:23:40;98268.31;;;8.42;81.24
77877;BME280;67251;50.844;7.978;2023-03-22T07:26:06;98271.38;;;8.39;80.28
77877;BME280;67251;50.844;7.978;2023-03-22T07:28:31;98265.44;;;8.44;80.17
77877;BME280;67251;50.844;7.978;2023-03-22T07:31:07;98271.84;;;8.56;80.32
77877;BME280;67251;50.844;7.978;2023-03-22T07:33:38;98267.75;;;8.67;78.87
77877;BME280;67251;50.844;7.978;2023-03-22T07:36:05;98269.19;;;8.63;78.78
77877;BME280;67251;50.844;7.978;2023-03-22T07:38:31;98263.25;;;8.67;77.76
77877;BME280;67251;50.844;7.978;2023-03-22T07:40:56;98265.50;;;8.77;78.12
77877;BME280;67251;50.844;7.978;2023-03-22T07:43:21;98256.91;;;8.95;77.27
77877;BME280;67251;50.844;7.978;2023-03-22T07:45:48;98249.09;;;9.00;76.52
77877;BME280;67251;50.844;7.978;2023-03-22T07:48:13;98253.38;;;9.21;75.30
77877;BME280;67251;50.844;7.978;2023-03-22T07:50:38;98252.53;;;9.47;75.75
77877;BME280;67251;50.844;7.978;2023-03-22T07:53:04;98247.44;;;9.97;73.72
77877;BME280;67251;50.844;7.978;2023-03-22T07:55:29;98250.63;;;10.26;72.22
77877;BME280;67251;50.844;7.978;2023-03-22T07:57:55;98254.28;;;10.38;71.09
77877;BME280;67251;50.844;7.978;2023-03-22T08:00:20;98239.50;;;10.35;70.87
77877;BME280;67251;50.844;7.978;2023-03-22T08:02:46;98254.16;;;10.26;70.21
77877;BME280;67251;50.844;7.978;2023-03-22T08:05:12;98243.25;;;10.14;70.95
77877;BME280;67251;50.844;7.978;2023-03-22T08:07:37;98237.06;;;10.27;70.14
77877;BME280;67251;50.844;7.978;2023-03-22T08:10:03;98236.53;;;10.50;69.85
77877;BME280;67251;50.844;7.978;2023-03-22T08:12:29;98235.56;;;10.69;68.56
77877;BME280;67251;50.844;7.978;2023-03-22T08:14:56;98230.56;;;10.80;68.47
77877;BME280;67251;50.844;7.978;2023-03-22T08:17:21;98218.84;;;12.34;63.73
77877;BME280;67251;50.844;7.978;2023-03-22T08:19:47;98202.53;;;13.01;60.23
77877;BME280;67251;50.844;7.978;2023-03-22T08:22:14;98205.78;;;13.50;60.00
77877;BME280;67251;50.844;7.978;2023-03-22T08:24:39;98211.50;;;12.95;59.23
77877;BME280;67251;50.844;7.978;2023-03-22T08:27:05;98202.22;;;13.33;58.76
77877;BME280;67251;50.844;7.978;2023-03-22T08:29:30;98207.03;;;12.89;59.59
77877;BME280;67251;50.844;7.978;2023-03-22T08:31:57;98214.84;;;12.78;61.75
77877;BME280;67251;50.844;7.978;2023-03-22T08:34:29;98202.44;;;11.94;63.37
77877;BME280;67251;50.844;7.978;2023-03-22T08:36:55;98207.19;;;11.73;63.51
77877;BME280;67251;50.844;7.978;2023-03-22T08:39:21;98207.34;;;11.60;64.14
77877;BME280;67251;50.844;7.978;2023-03-22T08:41:46;98206.78;;;11.33;64.61
77877;BME280;67251;50.844;7.978;2023-03-22T08:44:12;98208.19;;;11.17;65.70
77877;BME280;67251;50.844;7.978;2023-03-22T08:46:37;98199.03;;;11.07;65.90
77877;BME280;67251;50.844;7.978;2023-03-22T08:49:02;98213.13;;;10.95;65.25
77877;BME280;67251;50.844;7.978;2023-03-22T08:51:28;98202.47;;;10.89;65.35
77877;BME280;67251;50.844;7.978;2023-03-22T08:53:55;98212.78;;;10.60;64.89
77877;BME280;67251;50.844;7.978;2023-03-22T08:56:24;98193.91;;;10.55;65.47
77877;BME280;67251;50.844;7.978;2023-03-22T08:58:51;98207.47;;;10.54;66.33
77877;BME280;67251;50.844;7.978;2023-03-22T09:01:17;98200.28;;;10.54;66.77
77877;BME280;67251;50.844;7.978;2023-03-22T09:03:45;98188.28;;;10.63;66.14
77877;BME280;67251;50.844;7.978;2023-03-22T09:06:11;98201.34;;;10.78;65.35
77877;BME280;67251;50.844;7.978;2023-03-22T09:08:37;98199.41;;;10.85;65.02
77877;BME280;67251;50.844;7.978;2023-03-22T09:11:03;98193.19;;;10.91;64.53
77877;BME280;67251;50.844;7.978;2023-03-22T09:13:28;98203.94;;;10.85;64.28
77877;BME280;67251;50.844;7.978;2023-03-22T09:15:55;98194.81;;;10.67;64.40
77877;BME280;67251;50.844;7.978;2023-03-22T09:18:21;98192.28;;;10.47;64.86
77877;BME280;67251;50.844;7.978;2023-03-22T09:20:48;98204.34;;;10.63;64.92
77877;BME280;67251;50.844;7.978;2023-03-22T09:23:14;98176.72;;;10.69;64.05
77877;BME280;67251;50.844;7.978;2023-03-22T09:25:42;98176.91;;;10.93;63.96
77877;BME280;67251;50.844;7.978;2023-03-22T09:28:08;98179.38;;;10.94;63.99
77877;BME280;67251;50.844;7.978;2023-03-22T09:30:34;98176.97;;;11.11;62.81
77877;BME280;67251;50.844;7.978;2023-03-22T09:33:03;98176.34;;;11.09;63.55
77877;BME280;67251;50.844;7.978;2023-03-22T09:35:28;98183.81;;;11.25;62.87
77877;BME280;67251;50.844;7.978;2023-03-22T09:37:55;98184.69;;;11.38;63.07
77877;BME280;67251;50.844;7.978;2023-03-22T09:40:28;98178.81;;;11.29;62.45
77877;BME280;67251;50.844;7.978;2023-03-22T09:42:56;98184.78;;;11.31;62.43
77877;BME280;67251;50.844;7.978;2023-03-22T09:45:33;98179.44;;;11.86;61.80
77877;BME280;67251;50.844;7.978;2023-03-22T09:48:06;98180.22;;;13.88;57.91
77877;BME280;67251;50.844;7.978;2023-03-22T09:50:42;98156.47;;;15.04;51.85
77877;BME280;67251;50.844;7.978;2023-03-22T09:53:12;98156.75;;;16.07;50.08
77877;BME280;67251;50.844;7.978;2023-03-22T09:55:46;98149.78;;;16.11;49.32
77877;BME280;67251;50.844;7.978;2023-03-22T10:00:57;98166.34;;;15.15;51.46
77877;BME280;67251;50.844;7.978;2023-03-22T10:06:19;98164.47;;;15.38;50.10
77877;BME280;67251;50.844;7.978;2023-03-22T10:11:45;98164.31;;;14.26;52.47
77877;BME280;67251;50.844;7.978;2023-03-22T10:17:02;98183.31;;;13.79;52.63
77877;BME280;67251;50.844;7.978;2023-03-22T10:19:35;98185.16;;;13.91;51.33
77877;BME280;67251;50.844;7.978;2023-03-22T10:22:06;98173.63;;;14.64;50.32
77877;BME280;67251;50.844;7.978;2023-03-22T10:24:37;98158.25;;;15.54;47.78
77877;BME280;67251;50.844;7.978;2023-03-22T10:27:20;98161.47;;;15.73;47.55
77877;BME280;67251;50.844;7.978;2023-03-22T10:29:50;98140.44;;;16.51;44.89
77877;BME280;67251;50.844;7.978;2023-03-22T10:32:19;98155.19;;;16.70;44.10
77877;BME280;67251;50.844;7.978;2023-03-22T10:34:46;98145.50;;;16.15;44.32
77877;BME280;67251;50.844;7.978;2023-03-22T10:37:19;98143.88;;;16.14;45.64
77877;BME280;67251;50.844;7.978;2023-03-22T10:39:51;98125.78;;;17.11;44.92
77877;BME280;67251;50.844;7.978;2023-03-22T10:42:21;98127.13;;;17.61;43.14
77877;BME280;67251;50.844;7.978;2023-03-22T10:47:18;98098.06;;;19.21;40.42
77877;BME280;67251;50.844;7.978;2023-03-22T10:49:51;98112.75;;;18.54;39.43
77877;BME280;67251;50.844;7.978;2023-03-22T10:52:49;98130.34;;;18.31;42.09
77877;BME280;67251;50.844;7.978;2023-03-22T10:55:15;98114.16;;;17.68;41.48
77877;BME280;67251;50.844;7.978;2023-03-22T10:57:53;98122.38;;;17.31;42.80
77877;BME280;67251;50.844;7.978;2023-03-22T11:00:20;98120.34;;;17.06;42.15
77877;BME280;67251;50.844;7.978;2023-03-22T11:02:51;98105.66;;;16.27;42.90
77877;BME280;67251;50.844;7.978;2023-03-22T11:05:23;98099.31;;;16.12;43.86
77877;BME280;67251;50.844;7.978;2023-03-22T11:07:49;98126.03;;;16.13;44.08
77877;BME280;67251;50.844;7.978;2023-03-22T11:10:23;98125.53;;;15.28;45.68
77877;BME280;67251;50.844;7.978;2023-03-22T11:15:39;98139.34;;;15.32;45.60
77877;BME280;67251;50.844;7.978;2023-03-22T11:18:09;98144.25;;;15.57;46.73
77877;BME280;67251;50.844;7.978;2023-03-22T11:20:39;98149.25;;;15.65;45.88
77877;BME280;67251;50.844;7.978;2023-03-22T11:23:05;98148.00;;;15.56;45.43
77877;BME280;67251;50.844;7.978;2023-03-22T11:25:35;98144.25;;;15.35;46.53
77877;BME280;67251;50.844;7.978;2023-03-22T11:28:17;98141.63;;;14.85;46.92
77877;BME280;67251;50.844;7.978;2023-03-22T11:33:22;98158.41;;;15.08;47.52
77877;BME280;67251;50.844;7.978;2023-03-22T11:35:56;98153.44;;;15.78;45.63
77877;BME280;67251;50.844;7.978;2023-03-22T11:38:38;98145.78;;;15.70;45.32
77877;BME280;67251;50.844;7.978;2023-03-22T11:41:07;98147.53;;;15.59;46.51
77877;BME280;67251;50.844;7.978;2023-03-22T11:43:37;98142.00;;;15.49;45.88
77877;BME280;67251;50.844;7.978;2023-03-22T11:46:04;98137.88;;;15.63;45.83
77877;BME280;67251;50.844;7.978;2023-03-22T11:48:31;98141.22;;;15.70;46.98
77877;BME280;67251;50.844;7.978;2023-03-22T11:51:06;98144.69;;;15.49;46.00
77877;BME280;67251;50.844;7.978;2023-03-22T11:53:34;98148.09;;;15.22;46.07
77877;BME280;67251;50.844;7.978;2023-03-22T11:56:00;98142.16;;;15.20;46.63
77877;BME280;67251;50.844;7.978;2023-03-22T11:58:41;98133.84;;;15.44;46.13
77877;BME280;67251;50.844;7.978;2023-03-22T12:01:12;98127.88;;;15.20;46.02
77877;BME280;67251;50.844;7.978;2023-03-22T12:03:42;98134.84;;;14.99;47.41
77877;BME280;67251;50.844;7.978;2023-03-22T12:06:23;98130.22;;;14.77;47.04
77877;BME280;67251;50.844;7.978;2023-03-22T12:08:51;98144.81;;;14.65;46.83
77877;BME280;67251;50.844;7.978;2023-03-22T12:11:26;98128.88;;;14.63;46.73
77877;BME280;67251;50.844;7.978;2023-03-22T12:14:04;98142.53;;;14.73;47.57
77877;BME280;67251;50.844;7.978;2023-03-22T12:16:43;98132.09;;;14.60;46.77
77877;BME280;67251;50.844;7.978;2023-03-22T12:21:57;98120.22;;;15.12;46.54
77877;BME280;67251;50.844;7.978;2023-03-22T12:24:29;98114.56;;;15.13;48.42
77877;BME280;67251;50.844;7.978;2023-03-22T12:27:06;98113.81;;;15.18;47.12
77877;BME280;67251;50.844;7.978;2023-03-22T12:29:35;98120.81;;;14.80;47.43
77877;BME280;67251;50.844;7.978;2023-03-22T12:32:11;98104.56;;;14.75;48.55
77877;BME280;67251;50.844;7.978;2023-03-22T12:34:47;98119.13;;;15.13;47.31
77877;BME280;67251;50.844;7.978;2023-03-22T12:37:17;98111.00;;;14.91;46.98
77877;BME280;67251;50.844;7.978;2023-03-22T12:43:22;98103.78;;;15.13;46.52
77877;BME280;67251;50.844;7.978;2023-03-22T12:45:29;98100.19;;;15.24;46.61
77877;BME280;67251;50.844;7.978;2023-03-22T12:48:02;98092.91;;;15.25;46.09
77877;BME280;67251;50.844;7.978;2023-03-22T12:50:35;98087.06;;;15.11;47.37
77877;BME280;67251;50.844;7.978;2023-03-22T12:53:02;98078.03;;;15.22;47.31
77877;BME280;67251;50.844;7.978;2023-03-22T12:55:34;98086.25;;;15.32;47.10
77877;BME280;67251;50.844;7.978;2023-03-22T12:58:04;98088.50;;;15.63;45.99
77877;BME280;67251;50.844;7.978;2023-03-22T13:03:02;98086.25;;;15.32;46.13
77877;BME280;67251;50.844;7.978;2023-03-22T13:05:35;98085.91;;;15.07;45.65
77877;BME280;67251;50.844;7.978;2023-03-22T13:08:01;98087.06;;;15.11;46.63
77877;BME280;67251;50.844;7.978;2023-03-22T13:13:14;98081.16;;;14.92;46.15
77877;BME280;67251;50.844;7.978;2023-03-22T13:18:54;98093.00;;;15.13;46.54
77877;BME280;67251;50.844;7.978;2023-03-22T13:21:25;98088.31;;;14.87;46.42
77877;BME280;67251;50.844;7.978;2023-03-22T13:23:55;98096.56;;;14.63;45.48
77877;BME280;67251;50.844;7.978;2023-03-22T13:26:30;98100.25;;;14.57;47.45
77877;BME280;67251;50.844;7.978;2023-03-22T13:28:59;98106.75;;;14.44;47.73
77877;BME280;67251;50.844;7.978;2023-03-22T13:32:01;98107.59;;;14.45;48.15
77877;BME280;67251;50.844;7.978;2023-03-22T13:34:44;98113.56;;;14.18;48.80
77877;BME280;67251;50.844;7.978;2023-03-22T13:37:27;98104.53;;;13.79;48.65
77877;BME280;67251;50.844;7.978;2023-03-22T13:39:56;98097.69;;;13.60;49.10
77877;BME280;67251;50.844;7.978;2023-03-22T13:42:33;98108.22;;;13.61;49.57
77877;BME280;67251;50.844;7.978;2023-03-22T13:45:00;98104.28;;;13.80;48.98
77877;BME280;67251;50.844;7.978;2023-03-22T13:50:10;98103.44;;;14.09;49.21
77877;BME280;67251;50.844;7.978;2023-03-22T13:52:41;98096.28;;;14.14;48.37
77877;BME280;67251;50.844;7.978;2023-03-22T14:01:05;98108.59;;;13.81;49.38
77877;BME280;67251;50.844;7.978;2023-03-22T14:03:35;98122.91;;;13.70;49.88
77877;BME280;67251;50.844;7.978;2023-03-22T14:06:19;98125.66;;;13.47;51.45
77877;BME280;67251;50.844;7.978;2023-03-22T14:08:49;98116.91;;;13.40;51.53
77877;BME280;67251;50.844;7.978;2023-03-22T14:13:48;98120.75;;;13.44;53.11
77877;BME280;67251;50.844;7.978;2023-03-22T14:16:34;98101.56;;;13.52;53.40
77877;BME280;67251;50.844;7.978;2023-03-22T14:19:01;98090.13;;;13.45;52.77
77877;BME280;67251;50.844;7.978;2023-03-22T14:21:32;98109.91;;;13.39;52.65
77877;BME280;67251;50.844;7.978;2023-03-22T14:23:59;98106.16;;;13.40;53.47
77877;BME280;67251;50.844;7.978;2023-03-22T14:29:13;98089.63;;;13.60;51.52
77877;BME280;67251;50.844;7.978;2023-03-22T14:31:41;98070.81;;;13.88;50.66
77877;BME280;67251;50.844;7.978;2023-03-22T14:34:11;98066.44;;;13.99;51.12
77877;BME280;67251;50.844;7.978;2023-03-22T14:36:40;98067.16;;;13.94;50.53